Time;durP1;ratioP1;P1;durP2;ratioP2;P2;SDS_P1;SDS_P2;PMS_P1;PMS_P2;Temp;Humidity;BMP_temperature;BMP_pressure;BME280_temperature;BME280_humidity;BME280_pressure;Samples;Min_cycle;Max_cycle;Signal;HPM_P1;HPM_P2
2023/10/18 05:19:43;;;;;;;;;;;;;;;;;;4955081;28;20347;-39
2023/10/18 05:22:09;;;;;;;;;;;;;;;;;;4950465;28;20392;-39
2023/10/18 05:24:38;;;;;;;;;;;;;;;;;;4951283;29;19917;-39
2023/10/18 05:29:57;;;;;;;;;;;;;;;;;;4941642;29;20442;-39
2023/10/18 05:33:15;;;;;;;;;;;;;;;;;;4951331;28;20207;-39
2023/10/18 05:35:22;;;;;;;;;;;;;;;;;;4958773;28;19911;-39
2023/10/18 05:37:53;;;;;;;;;;;;;;;;;;4949907;28;19925;-39
2023/10/18 05:43:03;;;;;;;;;;;;;;;;;;4949580;29;19961;-39
2023/10/18 05:45:31;;;;;;;;;;;;;;;;;;4949641;29;20327;-39
2023/10/18 05:47:58;;;;;;;;;;;;;;;;;;4952719;28;19914;-39
2023/10/18 05:50:24;;;;;;;;;;;;;;;;;;5023763;28;20017;-40
2023/10/18 05:52:57;;;;;;;;;;;;;;;;;;4962127;28;19963;-39
2023/10/18 05:55:23;;;;;;;;;;;;;;;;;;4964649;28;19930;-39
2023/10/18 05:57:50;;;;;;;;;;;;;;;;;;4949974;29;20017;-39
2023/10/18 06:00:19;;;;;;;;;;;;;;;;;;4949853;28;19942;-39
2023/10/18 06:02:45;;;;;;;;;;;;;;;;;;4950320;28;19914;-39
2023/10/18 06:05:11;;;;;;;;;;;;;;;;;;4950549;28;19915;-39
2023/10/18 06:07:37;;;;;;;;;;;;;;;;;;5564862;22;21710;-39
2023/10/18 06:10:18;;;;;;;;;;;;;;;;;;4929595;29;20013;-39
2023/10/18 06:12:47;;;;;;;;;;;;;;;;;;4930858;29;19919;-39
2023/10/18 06:15:13;;;;;;;;;;;;;;;;;;4931467;28;19915;-39
2023/10/18 06:20:24;;;;;;;;;;;;;;;;;;4929876;29;19918;-39
2023/10/18 06:22:50;;;;;;;;;;;;;;;;;;4932952;28;19915;-39
2023/10/18 06:25:25;;;;;;;;;;;;;;;;;;4930679;28;19967;-39
2023/10/18 06:27:53;;;;;;;;;;;;;;;;;;4931270;29;19916;-39
2023/10/18 06:30:19;;;;;;;;;;;;;;;;;;4930922;28;20365;-39
2023/10/18 06:32:45;;;;;;;;;;;;;;;;;;4916709;28;19918;-39
2023/10/18 06:35:15;;;;;;;;;;;;;;;;;;4918768;28;19938;-39
2023/10/18 06:37:41;;;;;;;;;;;;;;;;;;4912190;28;19994;-39
2023/10/18 06:40:20;;;;;;;;;;;;;;;;;;4912359;28;20374;-39
2023/10/18 06:42:46;;;;;;;;;;;;;;;;;;4912152;28;19911;-39
2023/10/18 06:45:15;;;;;;;;;;;;;;;;;;4912110;28;19961;-39
2023/10/18 06:47:44;;;;;;;;;;;;;;;;;;4912147;28;19934;-39
2023/10/18 06:50:11;;;;;;;;;;;;;;;;;;4912131;28;20231;-39
2023/10/18 06:52:44;;;;;;;;;;;;;;;;;;4911989;28;19916;-39
2023/10/18 06:55:15;;;;;;;;;;;;;;;;;;4911887;28;20021;-39
2023/10/18 06:57:41;;;;;;;;;;;;;;;;;;4912038;28;20432;-39
2023/10/18 07:00:10;;;;;;;;;;;;;;;;;;4911869;28;19919;-39
2023/10/18 07:02:37;;;;;;;;;;;;;;;;;;4912079;28;19933;-39
2023/10/18 07:05:04;;;;;;;;;;;;;;;;;;4912119;28;20332;-39
2023/10/18 07:07:31;;;;;;;;;;;;;;;;;;4911727;28;19919;-39
2023/10/18 07:09:57;;;;;;;;;;;;;;;;;;4911662;28;19919;-39
2023/10/18 07:12:26;;;;;;;;;;;;;;;;;;4911897;28;19918;-39
2023/10/18 07:14:53;;;;;;;;;;;;;;;;;;4911072;28;19911;-39
2023/10/18 07:17:23;;;;;;;;;;;;;;;;;;4911713;28;19919;-39
2023/10/18 07:19:55;;;;;;;;;;;;;;;;;;4939116;28;19986;-39
2023/10/18 07:22:27;;;;;;;;;;;;;;;;;;4948716;28;19911;-39
2023/10/18 07:24:59;;;;;;;;;;;;;;;;;;4928697;28;19915;-39
2023/10/18 07:27:29;;;;;;;;;;;;;;;;;;4926983;28;20006;-39
2023/10/18 07:29:56;;;;;;;;;;;;;;;;;;4927936;29;19911;-39
2023/10/18 07:32:24;;;;;;;;;;;;;;;;;;4928073;28;19918;-39
2023/10/18 07:34:49;;;;;;;;;;;;;;;;;;4928822;28;20366;-39
2023/10/18 07:37:31;;;;;;;;;;;;;;;;;;4927762;29;19919;-39
2023/10/18 07:39:57;;;;;;;;;;;;;;;;;;4957947;28;19917;-39
2023/10/18 07:42:26;;;;;;;;;;;;;;;;;;4939965;28;19915;-39
2023/10/18 07:44:55;;;;;;;;;;;;;;;;;;4927283;28;20001;-39
2023/10/18 07:47:25;;;;;;;;;;;;;;;;;;4927465;28;20289;-39
2023/10/18 07:49:50;;;;;;;;;;;;;;;;;;4927586;28;19915;-40
2023/10/18 07:52:16;;;;;;;;;;;;;;;;;;4927560;29;19922;-39
2023/10/18 07:54:42;;;;;;;;;;;;;;;;;;4927963;29;20017;-39
2023/10/18 07:57:15;;;;;;;;;;;;;;;;;;4927271;29;19915;-39
2023/10/18 07:59:47;;;;;;;;;;;;;;;;;;4927874;28;19911;-39
2023/10/18 08:02:13;;;;;;;;;;;;;;;;;;4928183;28;19958;-40
2023/10/18 08:04:38;;;;;;;;;;;;;;;;;;4926953;28;20365;-39
2023/10/18 08:07:04;;;;;;;;;;;;;;;;;;4927399;29;19911;-39
2023/10/18 08:09:30;;;;;;;;;;;;;;;;;;4926841;28;19925;-40
2023/10/18 08:11:56;;;;;;;;;;;;;;;;;;4927106;29;20356;-39
2023/10/18 08:14:25;;;;;;;;;;;;;;;;;;4926950;29;19915;-40
2023/10/18 08:16:58;;;;;;;;;;;;;;;;;;4926907;28;20002;-39
2023/10/18 08:19:24;;;;;;;;;;;;;;;;;;4927077;28;20304;-40
2023/10/18 08:24:34;;;;;;;;;;;;;;;;;;4926739;29;19910;-40
2023/10/18 08:27:09;;;;;;;;;;;;;;;;;;4927979;28;19914;-40
2023/10/18 08:29:35;;;;;;;;;;;;;;;;;;4930053;28;20266;-40
2023/10/18 08:32:04;;;;;;;;;;;;;;;;;;4930489;28;20312;-39
2023/10/18 08:34:31;;;;;;;;;;;;;;;;;;4930373;28;20385;-40
2023/10/18 08:37:04;;;;;;;;;;;;;;;;;;4929947;28;19969;-40
2023/10/18 08:39:30;;;;;;;;;;;;;;;;;;4929950;28;19921;-40
2023/10/18 08:41:56;;;;;;;;;;;;;;;;;;4930089;29;20013;-40
2023/10/18 08:44:24;;;;;;;;;;;;;;;;;;4929901;28;19918;-40
2023/10/18 08:49:32;;;;;;;;;;;;;;;;;;4929426;28;20013;-40
2023/10/18 08:52:11;;;;;;;;;;;;;;;;;;4930146;28;19911;-40
2023/10/18 08:54:37;;;;;;;;;;;;;;;;;;4929859;28;19989;-39
2023/10/18 08:57:09;;;;;;;;;;;;;;;;;;4929850;29;19915;-39
2023/10/18 08:59:42;;;;;;;;;;;;;;;;;;4929524;29;20100;-40
2023/10/18 09:02:18;;;;;;;;;;;;;;;;;;4929839;28;20408;-40
2023/10/18 09:04:46;;;;;;;;;;;;;;;;;;4930143;28;19949;-39
2023/10/18 09:07:21;;;;;;;;;;;;;;;;;;4929803;29;20289;-39
2023/10/18 09:09:54;;;;;;;;;;;;;;;;;;4930045;28;19965;-40
2023/10/18 09:12:28;;;;;;;;;;;;;;;;;;4930324;28;19920;-40
2023/10/18 09:14:58;;;;;;;;;;;;;;;;;;4929723;28;19915;-40
2023/10/18 09:17:24;;;;;;;;;;;;;;;;;;4929276;28;20305;-40
2023/10/18 09:19:53;;;;;;;;;;;;;;;;;;4929499;29;19911;-40
2023/10/18 09:22:19;;;;;;;;;;;;;;;;;;5010853;28;20004;-40
2023/10/18 09:24:46;;;;;;;;;;;;;;;;;;5029421;28;20003;-40
2023/10/18 09:27:12;;;;;;;;;;;;;;;;;;5029440;28;20012;-39
2023/10/18 09:29:39;;;;;;;;;;;;;;;;;;5029240;28;20439;-39
2023/10/18 09:32:09;;;;;;;;;;;;;;;;;;5029285;28;19921;-39
2023/10/18 09:34:38;;;;;;;;;;;;;;;;;;5028966;28;20363;-39
2023/10/18 09:37:13;;;;;;;;;;;;;;;;;;5028808;28;19909;-39
2023/10/18 09:39:42;;;;;;;;;;;;;;;;;;5028517;28;19913;-39
2023/10/18 09:42:20;;;;;;;;;;;;;;;;;;5029393;28;20372;-39
2023/10/18 09:44:45;;;;;;;;;;;;;;;;;;5029011;28;20145;-39
2023/10/18 09:47:11;;;;;;;;;;;;;;;;;;5029284;28;19915;-39
2023/10/18 09:49:37;;;;;;;;;;;;;;;;;;5029009;28;19914;-39
2023/10/18 09:52:03;;;;;;;;;;;;;;;;;;5029059;28;19909;-39
2023/10/18 09:54:34;;;;;;;;;;;;;;;;;;5027611;28;19940;-39
2023/10/18 09:57:00;;;;;;;;;;;;;;;;;;5029174;28;19909;-39
2023/10/18 09:59:30;;;;;;;;;;;;;;;;;;5029560;28;20506;-39
2023/10/18 10:02:29;;;;;;;;;;;;;;;;;;5029535;28;20367;-39
2023/10/18 10:04:52;;;;;;;;;;;;;;;;;;5026375;28;19913;-39
2023/10/18 10:07:27;;;;;;;;;;;;;;;;;;5028972;28;19910;-39
2023/10/18 10:10:00;;;;;;;;;;;;;;;;;;5029099;28;20372;-39
2023/10/18 10:12:27;;;;;;;;;;;;;;;;;;5029419;28;19909;-39
2023/10/18 10:14:53;;;;;;;;;;;;;;;;;;5028659;28;19913;-39
2023/10/18 10:17:19;;;;;;;;;;;;;;;;;;5028412;28;19917;-39
2023/10/18 10:19:46;;;;;;;;;;;;;;;;;;5028340;28;20430;-39
2023/10/18 10:22:12;;;;;;;;;;;;;;;;;;5028710;28;19916;-39
2023/10/18 10:24:51;;;;;;;;;;;;;;;;;;5028282;28;20303;-39
2023/10/18 10:29:57;;;;;;;;;;;;;;;;;;4959368;28;19913;-40
2023/10/18 10:32:24;;;;;;;;;;;;;;;;;;4973294;28;19943;-40
2023/10/18 10:34:50;;;;;;;;;;;;;;;;;;4971614;28;19917;-40
2023/10/18 10:37:18;;;;;;;;;;;;;;;;;;4947830;28;19926;-40
2023/10/18 10:39:44;;;;;;;;;;;;;;;;;;4934176;28;20002;-40
2023/10/18 10:42:19;;;;;;;;;;;;;;;;;;4923461;29;19931;-40
2023/10/18 10:44:48;;;;;;;;;;;;;;;;;;4921846;29;20519;-40
2023/10/18 10:47:14;;;;;;;;;;;;;;;;;;4919666;28;19921;-39
2023/10/18 10:49:41;;;;;;;;;;;;;;;;;;4929307;28;19915;-39
2023/10/18 10:52:07;;;;;;;;;;;;;;;;;;4927264;28;19961;-39
2023/10/18 10:54:37;;;;;;;;;;;;;;;;;;4932750;29;20297;-39
2023/10/18 10:57:03;;;;;;;;;;;;;;;;;;4934344;29;19937;-40
2023/10/18 10:59:30;;;;;;;;;;;;;;;;;;4934554;28;19960;-39
2023/10/18 11:02:06;;;;;;;;;;;;;;;;;;4941431;28;19915;-39
2023/10/18 11:04:46;;;;;;;;;;;;;;;;;;4924405;29;19915;-39
2023/10/18 11:07:13;;;;;;;;;;;;;;;;;;4914988;29;20002;-39
2023/10/18 11:09:39;;;;;;;;;;;;;;;;;;4923819;28;19926;-39
2023/10/18 11:12:07;;;;;;;;;;;;;;;;;;4929213;29;19915;-40
2023/10/18 11:14:35;;;;;;;;;;;;;;;;;;5008059;28;20313;-39
2023/10/18 11:17:09;;;;;;;;;;;;;;;;;;4926450;29;19972;-39
2023/10/18 11:19:40;;;;;;;;;;;;;;;;;;4925478;29;19989;-39
2023/10/18 11:22:06;;;;;;;;;;;;;;;;;;4925881;28;19950;-39
2023/10/18 11:24:32;;;;;;;;;;;;;;;;;;4927799;29;20413;-39
2023/10/18 11:26:58;;;;;;;;;;;;;;;;;;4925512;29;19915;-39
2023/10/18 11:29:24;;;;;;;;;;;;;;;;;;4927528;29;19947;-40
2023/10/18 11:31:50;;;;;;;;;;;;;;;;;;4926876;29;19922;-39
2023/10/18 11:34:21;;;;;;;;;;;;;;;;;;4926324;29;20045;-39
2023/10/18 11:36:49;;;;;;;;;;;;;;;;;;4928603;29;19926;-39
2023/10/18 11:39:18;;;;;;;;;;;;;;;;;;4928278;29;20017;-39
2023/10/18 11:41:44;;;;;;;;;;;;;;;;;;4928685;29;19922;-39
2023/10/18 11:44:13;;;;;;;;;;;;;;;;;;4926220;29;19915;-40
2023/10/18 11:46:39;;;;;;;;;;;;;;;;;;4928413;29;20377;-39
2023/10/18 11:49:05;;;;;;;;;;;;;;;;;;4926993;29;19922;-39
2023/10/18 11:51:31;;;;;;;;;;;;;;;;;;4925543;29;19981;-39
2023/10/18 11:53:57;;;;;;;;;;;;;;;;;;4927579;29;20018;-39
2023/10/18 11:56:23;;;;;;;;;;;;;;;;;;4925891;29;20009;-39
2023/10/18 11:58:49;;;;;;;;;;;;;;;;;;4940490;28;19919;-39
2023/10/18 12:01:15;;;;;;;;;;;;;;;;;;5010532;28;19915;-39
2023/10/18 12:03:43;;;;;;;;;;;;;;;;;;4932658;29;20005;-39
2023/10/18 12:06:11;;;;;;;;;;;;;;;;;;4932873;29;20266;-39
2023/10/18 12:08:38;;;;;;;;;;;;;;;;;;4930934;29;19923;-39
2023/10/18 12:11:08;;;;;;;;;;;;;;;;;;4931625;29;19919;-40
2023/10/18 12:13:34;;;;;;;;;;;;;;;;;;4931632;29;19919;-39
2023/10/18 12:16:00;;;;;;;;;;;;;;;;;;5006370;28;19961;-39
2023/10/18 12:18:27;;;;;;;;;;;;;;;;;;4930829;29;19914;-39
2023/10/18 12:20:54;;;;;;;;;;;;;;;;;;4931428;29;19915;-40
2023/10/18 12:23:20;;;;;;;;;;;;;;;;;;4931222;29;19918;-39
2023/10/18 12:25:46;;;;;;;;;;;;;;;;;;4931113;29;19919;-39
2023/10/18 12:28:12;;;;;;;;;;;;;;;;;;4929857;29;20373;-40
2023/10/18 12:30:39;;;;;;;;;;;;;;;;;;4938407;29;19919;-40
2023/10/18 12:33:06;;;;;;;;;;;;;;;;;;4929379;28;19915;-39
2023/10/18 12:35:31;;;;;;;;;;;;;;;;;;4932248;29;19918;-40
2023/10/18 12:37:57;;;;;;;;;;;;;;;;;;4930097;29;19928;-40
2023/10/18 12:40:52;;;;;;;;;;;;;;;;;;4930286;29;19957;-39
2023/10/18 12:43:19;;;;;;;;;;;;;;;;;;4930305;29;19998;-39
2023/10/18 12:45:46;;;;;;;;;;;;;;;;;;4930923;29;20297;-40
2023/10/18 12:48:14;;;;;;;;;;;;;;;;;;4938270;28;19960;-40
2023/10/18 12:50:44;;;;;;;;;;;;;;;;;;4937827;28;19914;-40
2023/10/18 12:53:30;;;;;;;;;;;;;;;;;;4938213;29;19911;-39
2023/10/18 12:56:16;;;;;;;;;;;;;;;;;;4935540;28;20386;-40
2023/10/18 12:58:48;;;;;;;;;;;;;;;;;;4929211;29;20396;-40
2023/10/18 13:01:14;;;;;;;;;;;;;;;;;;5002465;28;19919;-39
2023/10/18 13:03:56;;;;;;;;;;;;;;;;;;4930135;29;19911;-39
2023/10/18 13:06:27;;;;;;;;;;;;;;;;;;4930767;29;19915;-40
2023/10/18 13:08:56;;;;;;;;;;;;;;;;;;4941714;29;19919;-39
2023/10/18 13:14:06;;;;;;;;;;;;;;;;;;4949324;29;19967;-39
2023/10/18 13:16:32;;;;;;;;;;;;;;;;;;4950208;28;19917;-39
2023/10/18 13:18:58;;;;;;;;;;;;;;;;;;4949424;28;19914;-40
2023/10/18 13:21:27;;;;;;;;;;;;;;;;;;4949916;29;19941;-39
2023/10/18 13:23:56;;;;;;;;;;;;;;;;;;4947349;29;19910;-40
2023/10/18 13:26:26;;;;;;;;;;;;;;;;;;4930843;29;19910;-40
2023/10/18 13:28:59;;;;;;;;;;;;;;;;;;4930343;28;20052;-39
2023/10/18 13:31:30;;;;;;;;;;;;;;;;;;4930467;29;19911;-39
2023/10/18 13:33:56;;;;;;;;;;;;;;;;;;4929503;29;19921;-39
2023/10/18 13:36:22;;;;;;;;;;;;;;;;;;4929556;29;19914;-39
2023/10/18 13:38:49;;;;;;;;;;;;;;;;;;4930196;29;19922;-39
2023/10/18 13:41:15;;;;;;;;;;;;;;;;;;4930526;28;19973;-39
2023/10/18 13:43:41;;;;;;;;;;;;;;;;;;4931533;28;19950;-54
2023/10/18 13:46:16;;;;;;;;;;;;;;;;;;4930736;29;19915;-54
2023/10/18 13:48:43;;;;;;;;;;;;;;;;;;4939287;28;19919;-51
2023/10/18 13:51:10;;;;;;;;;;;;;;;;;;4978834;28;20352;-54
2023/10/18 13:53:36;;;;;;;;;;;;;;;;;;4951145;28;19914;-54
2023/10/18 13:56:02;;;;;;;;;;;;;;;;;;4932760;28;20469;-52
2023/10/18 13:58:31;;;;;;;;;;;;;;;;;;4940089;28;20787;-39
2023/10/18 14:00:58;;;;;;;;;;;;;;;;;;4932500;28;19915;-40
2023/10/18 14:03:24;;;;;;;;;;;;;;;;;;4938892;28;19915;-39
2023/10/18 14:05:50;;;;;;;;;;;;;;;;;;5011277;28;19937;-39
2023/10/18 14:08:21;;;;;;;;;;;;;;;;;;4975790;28;19965;-39
2023/10/18 14:10:47;;;;;;;;;;;;;;;;;;4930666;29;19915;-39
2023/10/18 14:13:14;;;;;;;;;;;;;;;;;;5012125;28;19915;-39
2023/10/18 14:15:43;;;;;;;;;;;;;;;;;;4930384;28;19919;-39
2023/10/18 14:18:09;;;;;;;;;;;;;;;;;;4928554;29;20020;-39
2023/10/18 14:20:43;;;;;;;;;;;;;;;;;;4933188;28;20340;-39
2023/10/18 14:23:10;;;;;;;;;;;;;;;;;;4949822;29;20013;-39
2023/10/18 14:25:38;;;;;;;;;;;;;;;;;;4948453;29;20451;-39
2023/10/18 14:28:05;;;;;;;;;;;;;;;;;;4949684;29;20641;-39
2023/10/18 14:30:31;;;;;;;;;;;;;;;;;;4945845;28;19910;-39
2023/10/18 14:32:59;;;;;;;;;;;;;;;;;;4932128;29;19922;-39
2023/10/18 14:35:25;;;;;;;;;;;;;;;;;;4936063;28;20439;-39
2023/10/18 14:37:51;;;;;;;;;;;;;;;;;;4929817;29;19973;-39
2023/10/18 14:40:23;;;;;;;;;;;;;;;;;;4930855;29;19919;-39
2023/10/18 14:42:50;;;;;;;;;;;;;;;;;;4930422;29;19956;-39
2023/10/18 14:45:16;;;;;;;;;;;;;;;;;;4930896;29;19974;-39
2023/10/18 14:47:42;;;;;;;;;;;;;;;;;;4929822;29;20348;-39
2023/10/18 14:50:10;;;;;;;;;;;;;;;;;;5003279;28;20003;-39
2023/10/18 14:52:42;;;;;;;;;;;;;;;;;;4939035;28;19946;-39
2023/10/18 14:55:11;;;;;;;;;;;;;;;;;;4932910;28;19919;-39
2023/10/18 14:57:38;;;;;;;;;;;;;;;;;;4928774;28;19918;-39
2023/10/18 15:00:05;;;;;;;;;;;;;;;;;;4945826;28;20342;-39
2023/10/18 15:02:31;;;;;;;;;;;;;;;;;;4954849;28;19913;-53
2023/10/18 15:04:57;;;;;;;;;;;;;;;;;;4962820;28;19915;-52
2023/10/18 15:07:23;;;;;;;;;;;;;;;;;;4929887;29;20297;-54
2023/10/18 15:09:49;;;;;;;;;;;;;;;;;;4929733;29;19915;-50
2023/10/18 15:12:17;;;;;;;;;;;;;;;;;;4943548;28;19910;-49
2023/10/18 15:14:43;;;;;;;;;;;;;;;;;;4930582;28;19960;-51
2023/10/18 15:17:09;;;;;;;;;;;;;;;;;;4930408;29;19910;-53
2023/10/18 15:19:35;;;;;;;;;;;;;;;;;;4928631;29;19969;-52
2023/10/18 15:22:02;;;;;;;;;;;;;;;;;;4929381;29;20021;-51
2023/10/18 15:24:29;;;;;;;;;;;;;;;;;;4936249;29;19956;-51
2023/10/18 15:26:55;;;;;;;;;;;;;;;;;;4948205;29;20072;-53
2023/10/18 15:29:21;;;;;;;;;;;;;;;;;;4948288;29;19994;-53
2023/10/18 15:31:47;;;;;;;;;;;;;;;;;;4948440;29;20018;-49
2023/10/18 15:34:13;;;;;;;;;;;;;;;;;;4948874;29;20450;-49
2023/10/18 15:36:39;;;;;;;;;;;;;;;;;;4935060;29;19914;-52
2023/10/18 15:39:09;;;;;;;;;;;;;;;;;;5014517;28;20305;-50
2023/10/18 15:41:37;;;;;;;;;;;;;;;;;;4932973;28;19953;-51
2023/10/18 15:44:03;;;;;;;;;;;;;;;;;;4932289;28;19910;-52
2023/10/18 15:46:29;;;;;;;;;;;;;;;;;;4932723;29;19917;-52
2023/10/18 15:48:57;;;;;;;;;;;;;;;;;;4932255;29;19915;-52
2023/10/18 15:51:23;;;;;;;;;;;;;;;;;;4941709;28;19917;-52
2023/10/18 15:53:49;;;;;;;;;;;;;;;;;;4951631;29;19915;-52
2023/10/18 15:56:15;;;;;;;;;;;;;;;;;;4949628;28;19910;-51
2023/10/18 15:58:47;;;;;;;;;;;;;;;;;;4944516;28;20060;-54
2023/10/18 16:01:13;;;;;;;;;;;;;;;;;;4942936;28;19911;-53
2023/10/18 16:03:40;;;;;;;;;;;;;;;;;;4949036;28;19910;-53
2023/10/18 16:06:06;;;;;;;;;;;;;;;;;;4936190;29;19919;-52
2023/10/18 16:08:32;;;;;;;;;;;;;;;;;;4931606;29;19946;-55
2023/10/18 16:10:58;;;;;;;;;;;;;;;;;;4931767;29;19991;-52
2023/10/18 16:13:26;;;;;;;;;;;;;;;;;;4931265;28;19915;-53
2023/10/18 16:15:52;;;;;;;;;;;;;;;;;;4937442;29;19918;-49
2023/10/18 16:18:17;;;;;;;;;;;;;;;;;;4951125;29;19922;-51
2023/10/18 16:20:44;;;;;;;;;;;;;;;;;;4936318;29;19915;-53
2023/10/18 16:23:09;;;;;;;;;;;;;;;;;;4932780;29;19998;-53
2023/10/18 16:25:35;;;;;;;;;;;;;;;;;;4932328;29;20006;-52
2023/10/18 16:28:01;;;;;;;;;;;;;;;;;;5010530;28;19919;-56
2023/10/18 16:30:28;;;;;;;;;;;;;;;;;;4932156;29;19911;-52
2023/10/18 16:32:54;;;;;;;;;;;;;;;;;;4931587;28;20382;-54
2023/10/18 16:35:20;;;;;;;;;;;;;;;;;;4930606;29;19921;-55
2023/10/18 16:37:46;;;;;;;;;;;;;;;;;;4926976;29;19929;-51
2023/10/18 16:40:16;;;;;;;;;;;;;;;;;;4931182;29;19922;-54
2023/10/18 16:42:42;;;;;;;;;;;;;;;;;;4931832;29;20276;-55
2023/10/18 16:45:08;;;;;;;;;;;;;;;;;;4931848;29;20009;-52
2023/10/18 16:47:34;;;;;;;;;;;;;;;;;;4929788;29;19973;-51
2023/10/18 16:49:59;;;;;;;;;;;;;;;;;;4929406;28;19958;-51
2023/10/18 16:52:25;;;;;;;;;;;;;;;;;;4925340;29;19915;-50
2023/10/18 16:54:52;;;;;;;;;;;;;;;;;;5009850;28;19911;-48
2023/10/18 16:57:18;;;;;;;;;;;;;;;;;;4929417;28;20385;-48
2023/10/18 16:59:44;;;;;;;;;;;;;;;;;;4928676;29;19911;-52
2023/10/18 17:02:10;;;;;;;;;;;;;;;;;;4929225;29;19942;-50
2023/10/18 17:04:36;;;;;;;;;;;;;;;;;;4929785;29;19917;-51
2023/10/18 17:07:02;;;;;;;;;;;;;;;;;;4928714;29;19960;-47
2023/10/18 17:09:28;;;;;;;;;;;;;;;;;;4927733;29;20378;-52
2023/10/18 17:11:54;;;;;;;;;;;;;;;;;;4988129;28;20392;-50
2023/10/18 17:14:20;;;;;;;;;;;;;;;;;;4947293;28;20002;-49
2023/10/18 17:16:46;;;;;;;;;;;;;;;;;;5009785;28;20291;-51
2023/10/18 17:19:11;;;;;;;;;;;;;;;;;;4928431;28;19915;-51
2023/10/18 17:21:38;;;;;;;;;;;;;;;;;;4927928;29;20412;-50
2023/10/18 17:24:04;;;;;;;;;;;;;;;;;;4925572;28;19915;-48
2023/10/18 17:26:30;;;;;;;;;;;;;;;;;;4928041;29;19917;-51
2023/10/18 17:28:56;;;;;;;;;;;;;;;;;;4926971;29;19918;-49
2023/10/18 17:31:22;;;;;;;;;;;;;;;;;;4928027;28;19937;-48
2023/10/18 17:33:49;;;;;;;;;;;;;;;;;;4927353;29;20008;-50
2023/10/18 17:36:18;;;;;;;;;;;;;;;;;;4926386;29;20297;-46
2023/10/18 17:38:46;;;;;;;;;;;;;;;;;;5007416;28;20511;-46
2023/10/18 17:41:12;;;;;;;;;;;;;;;;;;4924857;29;19930;-49
2023/10/18 17:43:40;;;;;;;;;;;;;;;;;;4926085;29;19918;-50
2023/10/18 17:46:06;;;;;;;;;;;;;;;;;;4927375;28;20457;-49
2023/10/18 17:48:32;;;;;;;;;;;;;;;;;;4923038;28;19915;-48
2023/10/18 17:50:58;;;;;;;;;;;;;;;;;;4926225;29;20413;-49
2023/10/18 17:53:24;;;;;;;;;;;;;;;;;;4927996;29;19964;-48
2023/10/18 17:55:50;;;;;;;;;;;;;;;;;;4928586;29;19925;-49
2023/10/18 17:58:17;;;;;;;;;;;;;;;;;;4923778;28;19977;-46
2023/10/18 18:00:44;;;;;;;;;;;;;;;;;;4979160;28;19914;-47
2023/10/18 18:03:12;;;;;;;;;;;;;;;;;;5007007;28;19934;-46
2023/10/18 18:05:43;;;;;;;;;;;;;;;;;;5005619;28;19925;-45
2023/10/18 18:08:12;;;;;;;;;;;;;;;;;;4926946;28;20301;-49
2023/10/18 18:10:38;;;;;;;;;;;;;;;;;;4936604;28;19950;-48
2023/10/18 18:13:05;;;;;;;;;;;;;;;;;;4921748;28;20394;-45
2023/10/18 18:15:31;;;;;;;;;;;;;;;;;;4922852;28;19929;-46
2023/10/18 18:17:57;;;;;;;;;;;;;;;;;;4925347;28;20352;-46
2023/10/18 18:20:22;;;;;;;;;;;;;;;;;;4927444;28;19915;-49
2023/10/18 18:22:48;;;;;;;;;;;;;;;;;;4924564;28;20041;-45
2023/10/18 18:25:14;;;;;;;;;;;;;;;;;;4925088;29;20002;-46
2023/10/18 18:27:40;;;;;;;;;;;;;;;;;;4923426;29;19938;-48
2023/10/18 18:30:06;;;;;;;;;;;;;;;;;;4923083;28;19927;-48
2023/10/18 18:32:32;;;;;;;;;;;;;;;;;;4924286;29;19950;-46
2023/10/18 18:34:58;;;;;;;;;;;;;;;;;;5001663;28;20013;-49
2023/10/18 18:37:24;;;;;;;;;;;;;;;;;;4923101;29;19915;-46
2023/10/18 18:39:50;;;;;;;;;;;;;;;;;;5004502;28;19914;-44
2023/10/18 18:42:16;;;;;;;;;;;;;;;;;;5006683;28;19919;-45
2023/10/18 18:44:42;;;;;;;;;;;;;;;;;;4933709;28;19937;-45
2023/10/18 18:47:09;;;;;;;;;;;;;;;;;;4926894;29;19954;-45
2023/10/18 18:49:35;;;;;;;;;;;;;;;;;;4953536;28;19925;-39
2023/10/18 18:52:04;;;;;;;;;;;;;;;;;;4999887;28;19923;-45
2023/10/18 18:54:30;;;;;;;;;;;;;;;;;;4921588;29;19914;-39
2023/10/18 18:56:56;;;;;;;;;;;;;;;;;;4926277;29;19915;-39
2023/10/18 18:59:22;;;;;;;;;;;;;;;;;;4979262;28;20011;-46
2023/10/18 19:01:48;;;;;;;;;;;;;;;;;;5005644;28;19909;-44
2023/10/18 19:04:14;;;;;;;;;;;;;;;;;;4999416;28;20009;-44
2023/10/18 19:06:40;;;;;;;;;;;;;;;;;;4981249;28;20012;-44
2023/10/18 19:09:07;;;;;;;;;;;;;;;;;;4964987;28;19919;-44
2023/10/18 19:11:33;;;;;;;;;;;;;;;;;;4927534;28;19968;-44
2023/10/18 19:13:59;;;;;;;;;;;;;;;;;;4926287;28;20381;-43
2023/10/18 19:16:26;;;;;;;;;;;;;;;;;;4925311;28;19922;-39
2023/10/18 19:18:53;;;;;;;;;;;;;;;;;;4924410;29;20396;-39
2023/10/18 19:21:19;;;;;;;;;;;;;;;;;;4925429;29;20529;-44
2023/10/18 19:23:47;;;;;;;;;;;;;;;;;;5005530;28;19914;-43
2023/10/18 19:26:13;;;;;;;;;;;;;;;;;;4926454;28;20400;-43
2023/10/18 19:28:39;;;;;;;;;;;;;;;;;;4924266;29;19919;-42
2023/10/18 19:31:05;;;;;;;;;;;;;;;;;;4925186;29;20021;-40
2023/10/18 19:33:31;;;;;;;;;;;;;;;;;;4999481;28;19921;-41
2023/10/18 19:35:58;;;;;;;;;;;;;;;;;;4925952;29;20551;-42
2023/10/18 19:38:24;;;;;;;;;;;;;;;;;;4998814;28;20420;-42
2023/10/18 19:40:50;;;;;;;;;;;;;;;;;;4926610;28;19910;-42
2023/10/18 19:43:16;;;;;;;;;;;;;;;;;;4924711;29;19915;-42
2023/10/18 19:45:42;;;;;;;;;;;;;;;;;;4923734;28;20017;-43
2023/10/18 19:48:08;;;;;;;;;;;;;;;;;;4924280;28;19969;-43
2023/10/18 19:50:34;;;;;;;;;;;;;;;;;;4925763;29;20369;-44
2023/10/18 19:53:00;;;;;;;;;;;;;;;;;;4925548;29;19922;-43
2023/10/18 19:55:26;;;;;;;;;;;;;;;;;;4923534;29;19919;-43
2023/10/18 19:57:52;;;;;;;;;;;;;;;;;;4925185;29;20279;-46
2023/10/18 20:00:18;;;;;;;;;;;;;;;;;;4924847;29;19958;-43
2023/10/18 20:02:44;;;;;;;;;;;;;;;;;;4925299;29;20400;-43
2023/10/18 20:05:10;;;;;;;;;;;;;;;;;;4925929;29;19957;-43
2023/10/18 20:07:36;;;;;;;;;;;;;;;;;;4923351;28;20322;-43
2023/10/18 20:10:02;;;;;;;;;;;;;;;;;;4925981;29;20025;-43
2023/10/18 20:12:28;;;;;;;;;;;;;;;;;;5005194;28;20009;-43
2023/10/18 20:14:54;;;;;;;;;;;;;;;;;;4925313;28;20014;-44
2023/10/18 20:17:20;;;;;;;;;;;;;;;;;;4922648;28;19922;-45
2023/10/18 20:19:46;;;;;;;;;;;;;;;;;;4925183;29;19922;-45
2023/10/18 20:22:12;;;;;;;;;;;;;;;;;;4926252;29;20108;-47
2023/10/18 20:24:38;;;;;;;;;;;;;;;;;;4925683;29;19919;-43
2023/10/18 20:27:04;;;;;;;;;;;;;;;;;;4926890;28;19915;-44
2023/10/18 20:29:30;;;;;;;;;;;;;;;;;;4927501;29;19915;-44
2023/10/18 20:32:00;;;;;;;;;;;;;;;;;;4928148;28;20382;-47
2023/10/18 20:34:26;;;;;;;;;;;;;;;;;;4928039;28;19914;-44
2023/10/18 20:36:52;;;;;;;;;;;;;;;;;;4927891;28;19915;-43
2023/10/18 20:39:18;;;;;;;;;;;;;;;;;;4926505;29;19919;-49
2023/10/18 20:41:44;;;;;;;;;;;;;;;;;;4928159;29;20309;-43
2023/10/18 20:44:20;;;;;;;;;;;;;;;;;;4927676;28;19922;-44
2023/10/18 20:46:48;;;;;;;;;;;;;;;;;;4928243;29;19915;-47
2023/10/18 20:49:17;;;;;;;;;;;;;;;;;;4927269;29;20337;-44
2023/10/18 20:51:43;;;;;;;;;;;;;;;;;;4926866;29;19921;-43
2023/10/18 20:54:10;;;;;;;;;;;;;;;;;;4926742;29;20618;-41
2023/10/18 20:56:35;;;;;;;;;;;;;;;;;;4927327;29;19919;-41
2023/10/18 20:59:06;;;;;;;;;;;;;;;;;;4926931;29;19930;-40
2023/10/18 21:01:35;;;;;;;;;;;;;;;;;;4991170;28;19911;-39
2023/10/18 21:04:01;;;;;;;;;;;;;;;;;;4923871;29;20161;-39
2023/10/18 21:06:30;;;;;;;;;;;;;;;;;;4927792;29;20022;-41
2023/10/18 21:08:56;;;;;;;;;;;;;;;;;;4967902;28;19922;-41
2023/10/18 21:11:22;;;;;;;;;;;;;;;;;;4927878;29;19945;-39
2023/10/18 21:13:47;;;;;;;;;;;;;;;;;;4930046;28;20179;-39
2023/10/18 21:16:15;;;;;;;;;;;;;;;;;;4927930;29;20291;-39
2023/10/18 21:18:44;;;;;;;;;;;;;;;;;;4926682;29;19933;-39
2023/10/18 21:21:11;;;;;;;;;;;;;;;;;;4928632;28;19938;-39
2023/10/18 21:23:37;;;;;;;;;;;;;;;;;;4927823;28;20022;-39
2023/10/18 21:26:03;;;;;;;;;;;;;;;;;;4927564;28;19980;-39
2023/10/18 21:28:29;;;;;;;;;;;;;;;;;;4928160;29;20381;-39
2023/10/18 21:30:55;;;;;;;;;;;;;;;;;;4928434;29;19911;-39
2023/10/18 21:33:21;;;;;;;;;;;;;;;;;;4927585;28;19911;-40
2023/10/18 21:35:47;;;;;;;;;;;;;;;;;;4928424;29;19962;-39
2023/10/18 21:38:13;;;;;;;;;;;;;;;;;;4926203;28;19923;-40
2023/10/18 21:40:39;;;;;;;;;;;;;;;;;;4927833;29;19965;-40
2023/10/18 21:43:07;;;;;;;;;;;;;;;;;;4928856;29;19911;-40
2023/10/18 21:45:33;;;;;;;;;;;;;;;;;;4928259;28;19907;-39
2023/10/18 21:47:59;;;;;;;;;;;;;;;;;;4927487;28;19946;-40
2023/10/18 21:50:26;;;;;;;;;;;;;;;;;;4926453;28;20102;-40
2023/10/18 21:52:52;;;;;;;;;;;;;;;;;;4928126;28;20297;-40
2023/10/18 21:55:18;;;;;;;;;;;;;;;;;;4928915;29;19965;-40
2023/10/18 21:57:44;;;;;;;;;;;;;;;;;;4929071;28;19915;-39
2023/10/18 22:00:43;;;;;;;;;;;;;;;;;;4928589;28;19911;-40
2023/10/18 22:03:01;;;;;;;;;;;;;;;;;;4930640;28;19915;-39
2023/10/18 22:05:27;;;;;;;;;;;;;;;;;;4929026;28;19934;-39
2023/10/18 22:07:55;;;;;;;;;;;;;;;;;;4930113;28;20300;-39
2023/10/18 22:10:26;;;;;;;;;;;;;;;;;;4926809;28;19937;-39
2023/10/18 22:12:55;;;;;;;;;;;;;;;;;;4929145;28;20297;-39
2023/10/18 22:15:25;;;;;;;;;;;;;;;;;;4929375;28;19922;-39
2023/10/18 22:17:51;;;;;;;;;;;;;;;;;;4930095;28;19915;-39
2023/10/18 22:20:23;;;;;;;;;;;;;;;;;;4929003;28;19915;-39
2023/10/18 22:22:49;;;;;;;;;;;;;;;;;;4932989;28;19922;-39
2023/10/18 22:25:22;;;;;;;;;;;;;;;;;;4930458;28;19911;-39
2023/10/18 22:27:49;;;;;;;;;;;;;;;;;;4929474;28;20346;-39